KSKX

Details ICAO KSKX
Name Taos Rgnl
Region United States
Timezone America/Denver (UTC-7.0)
Plans Departing 3
Arriving 8
Stats Elevation 7,091 ft / 2,161 m (AMSL)
Location 36.458182° -105.672425°
Runways 1
Magnetic Variation 8.254° E
Sunrise 2017-12-14 14:08:09 UTC / 2017-12-14 07:08:09 Local
Sunset 2017-12-14 23:49:40 UTC / 2017-12-14 16:49:40 Local
Advertisement - Login to hide

Runways

ID Width Length Bearing (true) Bearing (mag) Surface Threshold Offset Overrun Length
04 75 ft / 23 m 5,794 ft / 1,766 m 56.03° 47.78° Asphalt 0 ft / 0 m 0 ft / 0 m
22 75 ft / 23 m 5,794 ft / 1,766 m 236.04° 227.79° Asphalt 0 ft / 0 m 0 ft / 0 m

Map

Weather


0- 5 10 15 20 25 30 35+ Temperature / ° C

Clouds and Precipitation
Forecast for 2017-12-15 06:00 UTC. Updated an hour ago

Ground ~20,000 ft ~40,000 ft Winds

METAR

KSKX 150556Z AUTO 00000KT 10SM CLR M06/M12 A3031 RMK AO2 SLP286 T10611117 10011 21067 51016 FZRANO $

TAF

Not found

Frequencies

Recorded 132.97 MHz AWOS 3
Unicom 122.80 MHz CTAF/UNICOM
Warning: Do not use this data for real-world aviation or navigation. No guarantee of current accuracy is given.